Aviation Digital Data Service (ADDS)

Output produced by METARs form (1426 UTC 28 April 2015)
found at http://aviationweather.gov/adds/metars/
 
KJHW 281120Z 2812/2912 02003KT P6SM SKC 
     FM281300 32005KT P6SM BKN035 
     FM282300 32006KT P6SM SCT050 
     FM290800 28004KT P6SM BKN060 AMD LTD TO CLD VIS AND WIND